createdAt,value
2023-02-06T00:00:29.305Z,31.80
2023-02-06T00:01:29.291Z,32.70
2023-02-06T00:03:49.745Z,26.20
2023-02-06T00:04:49.744Z,26.80
2023-02-06T00:05:49.774Z,31.60
2023-02-06T00:06:49.726Z,28.90
2023-02-06T00:07:49.714Z,34.80
2023-02-06T00:08:49.706Z,34.60
2023-02-06T00:09:49.690Z,38.90
2023-02-06T00:10:49.689Z,34.20
2023-02-06T00:11:49.670Z,31.80
2023-02-06T00:12:49.658Z,36.30
2023-02-06T00:13:49.681Z,36.90
2023-02-06T00:14:49.636Z,33.20
2023-02-06T00:15:49.676Z,35.50
2023-02-06T00:16:49.612Z,31.60
2023-02-06T00:17:49.601Z,32.10
2023-02-06T00:18:49.614Z,36.80
2023-02-06T00:19:49.582Z,31.10
2023-02-06T00:20:49.568Z,35.50
2023-02-06T00:21:49.562Z,31.40
2023-02-06T00:22:49.543Z,35.60
2023-02-06T00:23:49.552Z,37.00
2023-02-06T00:24:49.529Z,39.50
2023-02-06T00:25:49.526Z,33.50
2023-02-06T00:26:49.498Z,35.70
2023-02-06T00:27:49.524Z,42.60
2023-02-06T00:28:49.489Z,34.30
2023-02-06T00:29:49.468Z,32.40
2023-02-06T00:30:49.477Z,34.70
2023-02-06T00:31:49.543Z,34.90
2023-02-06T00:32:49.516Z,35.30
2023-02-06T00:33:49.446Z,34.40
2023-02-06T00:34:49.415Z,36.00
2023-02-06T00:35:49.406Z,36.00
2023-02-06T00:36:49.395Z,32.50
2023-02-06T00:37:49.389Z,37.00
2023-02-06T00:38:49.383Z,35.40
2023-02-06T00:39:49.376Z,36.90
2023-02-06T00:40:49.356Z,32.90
2023-02-06T00:41:49.347Z,35.40
2023-02-06T00:42:49.333Z,38.70
2023-02-06T00:43:49.343Z,42.90
2023-02-06T00:44:49.320Z,46.20
2023-02-06T00:45:49.309Z,58.30
2023-02-06T00:46:49.294Z,56.50
2023-02-06T00:47:49.292Z,49.40
2023-02-06T00:48:49.280Z,50.00
2023-02-06T00:49:49.261Z,54.00
2023-02-06T00:50:49.248Z,55.90
2023-02-06T00:51:49.245Z,53.10
2023-02-06T00:52:49.225Z,60.80
2023-02-06T00:53:51.114Z,55.50
2023-02-06T00:54:49.208Z,57.50
2023-02-06T00:55:49.200Z,40.30
2023-02-06T00:56:49.187Z,41.30
2023-02-06T00:57:49.175Z,33.40
2023-02-06T00:58:49.182Z,39.40
2023-02-06T00:59:49.162Z,32.30
2023-02-06T01:00:49.148Z,33.20
2023-02-06T01:01:49.214Z,34.70
2023-02-06T01:02:49.204Z,35.80
2023-02-06T01:03:49.127Z,35.20
2023-02-06T01:04:49.099Z,37.10
2023-02-06T01:05:49.093Z,33.70
2023-02-06T01:06:49.075Z,35.10
2023-02-06T01:07:49.069Z,37.00
2023-02-06T01:08:49.064Z,39.90
2023-02-06T01:09:49.047Z,41.60
2023-02-06T01:10:49.037Z,35.00
2023-02-06T01:11:49.022Z,34.70
2023-02-06T01:12:49.029Z,35.10
2023-02-06T01:13:49.018Z,32.40
2023-02-06T01:14:48.989Z,31.70
2023-02-06T01:15:50.985Z,31.00
2023-02-06T01:16:48.971Z,35.70
2023-02-06T01:17:48.959Z,37.40
2023-02-06T01:18:48.963Z,39.20
2023-02-06T01:19:48.942Z,46.10
2023-02-06T01:20:48.926Z,36.70
2023-02-06T01:21:48.921Z,35.30
2023-02-06T01:22:48.907Z,44.50
2023-02-06T01:23:48.907Z,55.00
2023-02-06T01:24:48.884Z,48.90
2023-02-06T01:25:48.879Z,58.70
2023-02-06T01:26:48.863Z,42.60
2023-02-06T01:27:48.885Z,40.80
2023-02-06T01:28:48.857Z,56.00
2023-02-06T01:29:48.844Z,41.80
2023-02-06T01:30:48.850Z,41.60
2023-02-06T01:31:48.834Z,48.50
2023-02-06T01:32:48.807Z,46.80
2023-02-06T01:33:49.928Z,48.50
2023-02-06T01:34:49.906Z,69.10
2023-02-06T01:35:49.902Z,71.40
2023-02-06T01:36:49.876Z,72.80
2023-02-06T01:37:49.874Z,74.40
2023-02-06T01:38:49.885Z,41.50
2023-02-06T01:39:49.849Z,39.20
2023-02-06T01:40:49.835Z,37.70
2023-02-06T01:41:49.833Z,42.30
2023-02-06T01:42:49.821Z,38.40
2023-02-06T01:43:49.832Z,34.90
2023-02-06T01:44:49.817Z,41.70
2023-02-06T01:45:49.803Z,40.40
2023-02-06T01:46:49.810Z,42.00
2023-02-06T01:47:49.775Z,43.20
2023-02-06T01:48:49.769Z,44.00
2023-02-06T01:49:49.762Z,44.80
2023-02-06T01:50:49.763Z,43.90
2023-02-06T01:51:49.733Z,41.50
2023-02-06T01:52:49.728Z,42.10
2023-02-06T01:53:49.713Z,44.40
2023-02-06T01:54:49.713Z,41.70
2023-02-06T01:55:49.704Z,48.20
2023-02-06T01:56:49.681Z,43.50
2023-02-06T01:57:49.667Z,46.20
2023-02-06T01:58:49.656Z,39.80
2023-02-06T01:59:49.653Z,38.90
2023-02-06T02:00:49.751Z,42.00
2023-02-06T02:01:49.688Z,39.30
2023-02-06T02:02:49.621Z,46.10
2023-02-06T02:03:49.601Z,40.90
2023-02-06T02:04:49.599Z,43.40
2023-02-06T02:05:49.580Z,39.50
2023-02-06T02:06:49.577Z,40.30
2023-02-06T02:07:49.570Z,41.00
2023-02-06T02:08:49.547Z,43.10
2023-02-06T02:09:49.549Z,42.20
2023-02-06T02:10:49.542Z,61.70
2023-02-06T02:11:49.521Z,63.60
2023-02-06T02:12:49.527Z,93.10
2023-02-06T02:13:49.514Z,80.10
2023-02-06T02:14:49.518Z,99.30
2023-02-06T02:15:49.494Z,90.90
2023-02-06T02:16:49.474Z,93.60
2023-02-06T02:17:49.466Z,64.80
2023-02-06T02:18:49.452Z,72.70
2023-02-06T02:19:49.467Z,67.80
2023-02-06T02:20:49.446Z,65.30
2023-02-06T02:21:49.433Z,55.90
2023-02-06T02:22:49.423Z,50.50
2023-02-06T02:23:49.424Z,61.00
2023-02-06T02:24:49.439Z,53.80
2023-02-06T02:25:49.385Z,47.20
2023-02-06T02:26:49.376Z,44.70
2023-02-06T02:27:49.394Z,41.50
2023-02-06T02:28:49.354Z,47.00
2023-02-06T02:29:49.354Z,35.20
2023-02-06T02:30:49.333Z,37.90
2023-02-06T02:31:49.381Z,36.50
2023-02-06T02:32:49.313Z,40.20
2023-02-06T02:33:49.314Z,39.40
2023-02-06T02:34:49.327Z,38.20
2023-02-06T02:35:49.279Z,50.90
2023-02-06T02:36:49.270Z,50.10
2023-02-06T02:37:49.263Z,56.30
2023-02-06T02:38:49.254Z,65.70
2023-02-06T02:39:49.245Z,64.00
2023-02-06T02:40:49.239Z,55.90
2023-02-06T02:41:49.222Z,68.40
2023-02-06T02:42:49.201Z,69.80
2023-02-06T02:43:49.200Z,58.90
2023-02-06T02:44:49.193Z,45.80
2023-02-06T02:45:49.200Z,42.80
2023-02-06T02:46:49.169Z,43.20
2023-02-06T02:47:49.161Z,50.30
2023-02-06T02:48:49.145Z,53.80
2023-02-06T02:49:49.127Z,66.60
2023-02-06T02:50:49.121Z,64.90
2023-02-06T02:51:49.104Z,85.90
2023-02-06T02:52:49.094Z,78.70
2023-02-06T02:53:49.083Z,64.60
2023-02-06T02:54:49.083Z,47.20
2023-02-06T02:55:49.076Z,68.50
2023-02-06T02:56:49.047Z,60.60
2023-02-06T02:57:49.050Z,44.50
2023-02-06T02:58:49.038Z,49.90
2023-02-06T02:59:49.040Z,53.80
2023-02-06T03:00:49.048Z,50.30
2023-02-06T03:01:49.041Z,48.40
2023-02-06T03:02:48.994Z,55.60
2023-02-06T03:03:48.973Z,55.10
2023-02-06T03:04:48.966Z,59.40
2023-02-06T03:05:48.969Z,68.30
2023-02-06T03:06:48.938Z,44.80
2023-02-06T03:07:48.939Z,67.30
2023-02-06T03:08:48.920Z,63.90
2023-02-06T03:09:48.922Z,60.30
2023-02-06T03:10:48.912Z,70.80
2023-02-06T03:11:48.889Z,79.10
2023-02-06T03:12:48.880Z,44.00
2023-02-06T03:13:48.874Z,47.40
2023-02-06T03:14:48.851Z,44.30
2023-02-06T03:15:48.872Z,40.90
2023-02-06T03:16:48.958Z,44.40
2023-02-06T03:17:48.825Z,45.10
2023-02-06T03:18:48.817Z,39.60
2023-02-06T03:19:48.820Z,46.50
2023-02-06T03:20:48.824Z,42.10
2023-02-06T03:21:48.787Z,45.10
2023-02-06T03:22:48.797Z,42.80
2023-02-06T03:23:48.768Z,41.20
2023-02-06T03:24:48.770Z,41.30
2023-02-06T03:25:48.752Z,47.00
2023-02-06T03:26:48.733Z,52.80
2023-02-06T03:27:48.745Z,64.60
2023-02-06T03:28:48.721Z,64.10
2023-02-06T03:29:48.727Z,79.70
2023-02-06T03:30:48.775Z,66.60
2023-02-06T03:31:48.730Z,64.10
2023-02-06T03:32:48.683Z,52.70
2023-02-06T03:33:48.672Z,51.80
2023-02-06T03:34:48.660Z,44.20
2023-02-06T03:35:48.656Z,42.70
2023-02-06T03:36:48.645Z,51.30
2023-02-06T03:37:48.619Z,43.20
2023-02-06T03:38:48.619Z,47.40
2023-02-06T03:39:48.605Z,43.20
2023-02-06T03:40:49.606Z,40.40
2023-02-06T03:41:48.594Z,44.50
2023-02-06T03:42:48.574Z,38.50
2023-02-06T03:43:48.710Z,41.50
2023-02-06T03:44:48.563Z,47.40
2023-02-06T03:45:48.595Z,46.90
2023-02-06T03:46:48.534Z,45.90
2023-02-06T03:47:48.524Z,60.80
2023-02-06T03:48:48.532Z,53.30
2023-02-06T03:49:48.495Z,61.90
2023-02-06T03:50:48.509Z,62.50
2023-02-06T03:51:48.480Z,58.00
2023-02-06T03:52:48.472Z,49.20
2023-02-06T03:53:48.468Z,50.80
2023-02-06T03:54:48.458Z,45.10
2023-02-06T03:55:48.450Z,56.50
2023-02-06T03:56:48.427Z,81.10
2023-02-06T03:57:48.422Z,79.60
2023-02-06T03:58:48.407Z,97.90
2023-02-06T03:59:48.395Z,71.50
2023-02-06T04:00:48.409Z,62.00
2023-02-06T04:01:48.380Z,48.40
2023-02-06T04:02:48.390Z,66.60
2023-02-06T04:03:48.360Z,78.00
2023-02-06T04:04:48.353Z,55.50
2023-02-06T04:05:48.378Z,53.40
2023-02-06T04:06:48.336Z,42.70
2023-02-06T04:07:48.328Z,57.30
2023-02-06T04:08:48.317Z,66.90
2023-02-06T04:09:48.299Z,63.30
2023-02-06T04:10:48.315Z,62.90
2023-02-06T04:11:48.274Z,51.30
2023-02-06T04:12:48.262Z,54.50
2023-02-06T04:13:48.272Z,48.60
2023-02-06T04:14:48.247Z,66.30
2023-02-06T04:15:48.247Z,83.70
2023-02-06T04:16:48.294Z,81.70
2023-02-06T04:17:59.237Z,89.40
2023-02-06T04:18:50.209Z,74.20
2023-02-06T04:19:48.198Z,71.70
2023-02-06T04:20:48.193Z,65.00
2023-02-06T04:21:48.202Z,66.30
2023-02-06T04:22:48.168Z,67.00
2023-02-06T04:23:48.157Z,89.40
2023-02-06T04:24:48.153Z,85.10
2023-02-06T04:25:48.134Z,62.20
2023-02-06T04:26:48.137Z,61.30
2023-02-06T04:27:48.148Z,49.00
2023-02-06T04:28:48.104Z,49.00
2023-02-06T04:29:48.099Z,46.60
2023-02-06T04:30:48.099Z,45.20
2023-02-06T04:31:48.086Z,50.60
2023-02-06T04:32:48.066Z,54.10
2023-02-06T04:33:48.051Z,45.40
2023-02-06T04:34:48.043Z,49.70
2023-02-06T04:35:48.026Z,48.80
2023-02-06T04:36:48.030Z,47.90
2023-02-06T04:37:48.008Z,45.70
2023-02-06T04:38:48.002Z,40.80
2023-02-06T04:39:48.001Z,49.10
2023-02-06T04:40:47.979Z,50.60
2023-02-06T04:41:47.977Z,59.90
2023-02-06T04:42:47.957Z,70.80
2023-02-06T04:43:47.967Z,49.00
2023-02-06T04:44:47.948Z,56.80
2023-02-06T04:45:47.944Z,42.40
2023-02-06T04:46:47.938Z,40.90
2023-02-06T04:47:47.934Z,69.50
2023-02-06T04:48:47.907Z,69.80
2023-02-06T04:49:47.902Z,45.90
2023-02-06T04:50:47.877Z,42.60
2023-02-06T04:51:47.889Z,50.50
2023-02-06T04:52:47.870Z,38.80
2023-02-06T04:53:47.849Z,37.30
2023-02-06T04:54:47.840Z,36.90
2023-02-06T04:55:47.824Z,36.00
2023-02-06T04:56:47.840Z,38.90
2023-02-06T04:57:47.816Z,44.00
2023-02-06T04:58:47.797Z,41.20
2023-02-06T04:59:48.788Z,45.50
2023-02-06T05:00:47.770Z,45.10
2023-02-06T05:01:47.827Z,47.90
2023-02-06T05:02:47.807Z,50.40
2023-02-06T05:03:47.738Z,51.60
2023-02-06T05:04:47.732Z,55.70
2023-02-06T05:05:47.723Z,48.50
2023-02-06T05:06:47.728Z,45.30
2023-02-06T05:07:47.711Z,51.90
2023-02-06T05:08:47.705Z,51.50
2023-02-06T05:09:47.697Z,49.70
2023-02-06T05:10:47.674Z,47.60
2023-02-06T05:11:47.678Z,50.20
2023-02-06T05:12:47.658Z,48.10
2023-02-06T05:13:47.632Z,55.20
2023-02-06T05:14:47.646Z,50.30
2023-02-06T05:15:47.643Z,51.20
2023-02-06T05:16:47.597Z,55.00
2023-02-06T05:17:48.616Z,59.10
2023-02-06T05:18:47.581Z,61.70
2023-02-06T05:19:47.580Z,55.40
2023-02-06T05:20:47.565Z,53.40
2023-02-06T05:21:47.565Z,69.70
2023-02-06T05:22:47.562Z,63.60
2023-02-06T05:23:47.540Z,61.90
2023-02-06T05:24:47.547Z,56.20
2023-02-06T05:25:47.502Z,61.10
2023-02-06T05:26:48.512Z,54.60
2023-02-06T05:27:47.549Z,42.80
2023-02-06T05:28:47.486Z,44.50
2023-02-06T05:29:47.472Z,49.30
2023-02-06T05:30:47.607Z,50.60
2023-02-06T05:31:47.511Z,46.90
2023-02-06T05:32:47.458Z,56.40
2023-02-06T05:33:47.436Z,129.30
2023-02-06T05:34:47.429Z,56.80
2023-02-06T05:35:47.424Z,82.20
2023-02-06T05:36:47.418Z,72.60
2023-02-06T05:37:47.402Z,41.30
2023-02-06T05:38:47.399Z,56.70
2023-02-06T05:39:47.378Z,42.70
2023-02-06T05:40:47.380Z,53.20
2023-02-06T05:41:47.349Z,40.70
2023-02-06T05:42:48.363Z,45.30
2023-02-06T05:43:47.341Z,40.80
2023-02-06T05:44:47.338Z,49.30
2023-02-06T05:45:47.318Z,70.90
2023-02-06T05:46:47.302Z,84.30
2023-02-06T05:47:47.302Z,102.30
2023-02-06T05:48:47.287Z,59.00
2023-02-06T05:49:47.271Z,58.80
2023-02-06T05:50:47.263Z,39.80
2023-02-06T05:51:47.257Z,41.60
2023-02-06T05:52:47.256Z,40.50
2023-02-06T05:53:47.234Z,43.30
2023-02-06T05:54:48.223Z,44.40
2023-02-06T05:55:47.224Z,62.60
2023-02-06T05:56:47.206Z,61.60
2023-02-06T05:57:47.236Z,71.30
2023-02-06T05:58:47.191Z,108.50
2023-02-06T05:59:47.189Z,65.30
2023-02-06T06:00:47.156Z,51.20
2023-02-06T06:01:47.161Z,44.10
2023-02-06T06:02:47.187Z,55.80
2023-02-06T06:03:47.226Z,58.70
2023-02-06T06:04:47.218Z,68.60
2023-02-06T06:05:47.136Z,79.20
2023-02-06T06:06:47.113Z,88.40
2023-02-06T06:07:47.117Z,56.40
2023-02-06T06:08:47.115Z,66.10
2023-02-06T06:09:47.091Z,79.50
2023-02-06T06:10:47.071Z,89.80
2023-02-06T06:11:47.069Z,96.20
2023-02-06T06:12:47.059Z,94.30
2023-02-06T06:13:47.048Z,61.30
2023-02-06T06:14:47.116Z,55.40
2023-02-06T06:15:47.073Z,46.60
2023-02-06T06:16:47.030Z,43.20
2023-02-06T06:17:47.047Z,38.80
2023-02-06T06:18:47.075Z,36.70
2023-02-06T06:19:47.037Z,46.70
2023-02-06T06:20:47.638Z,46.20
2023-02-06T06:21:47.003Z,44.90
2023-02-06T06:22:47.044Z,43.70
2023-02-06T06:23:46.996Z,39.10
2023-02-06T06:24:46.965Z,42.50
2023-02-06T06:25:46.957Z,42.20
2023-02-06T06:26:47.915Z,42.00
2023-02-06T06:27:46.976Z,40.50
2023-02-06T06:28:46.939Z,43.50
2023-02-06T06:29:46.908Z,41.80
2023-02-06T06:30:46.935Z,45.00
2023-02-06T06:31:46.900Z,53.20
2023-02-06T06:32:46.872Z,41.00
2023-02-06T06:33:47.884Z,41.60
2023-02-06T06:34:46.873Z,41.50
2023-02-06T06:35:46.904Z,42.90
2023-02-06T06:36:46.846Z,52.30
2023-02-06T06:37:46.839Z,57.40
2023-02-06T06:38:46.878Z,70.50
2023-02-06T06:39:46.843Z,83.60
2023-02-06T06:40:46.802Z,96.00
2023-02-06T06:41:46.816Z,112.80
2023-02-06T06:42:46.807Z,145.40
2023-02-06T06:43:46.757Z,94.80
2023-02-06T06:44:46.763Z,65.90
2023-02-06T06:45:46.794Z,62.90
2023-02-06T06:46:46.855Z,49.70
2023-02-06T06:47:46.740Z,50.80
2023-02-06T06:48:46.757Z,62.10
2023-02-06T06:49:46.786Z,63.00
2023-02-06T06:50:46.717Z,66.30
2023-02-06T06:51:46.718Z,54.70
2023-02-06T06:52:46.722Z,67.00
2023-02-06T06:53:46.741Z,57.10
2023-02-06T06:54:47.687Z,47.20
2023-02-06T06:55:46.667Z,51.10
2023-02-06T06:56:46.635Z,47.30
2023-02-06T06:57:46.672Z,45.60
2023-02-06T06:58:46.655Z,47.60
2023-02-06T06:59:46.650Z,45.40
2023-02-06T07:00:46.665Z,45.00
2023-02-06T07:01:46.610Z,51.30
2023-02-06T07:02:46.623Z,51.40
2023-02-06T07:03:46.600Z,63.50
2023-02-06T07:04:46.540Z,55.80
2023-02-06T07:05:46.561Z,43.20
2023-02-06T07:06:47.571Z,42.30
2023-02-06T07:07:46.560Z,46.30
2023-02-06T07:08:46.561Z,59.60
2023-02-06T07:09:46.529Z,65.00
2023-02-06T07:10:46.532Z,54.40
2023-02-06T07:11:46.529Z,52.70
2023-02-06T07:12:46.509Z,54.00
2023-02-06T07:13:46.504Z,61.80
2023-02-06T07:14:46.495Z,103.40
2023-02-06T07:15:46.476Z,86.70
2023-02-06T07:16:46.490Z,73.30
2023-02-06T07:17:46.429Z,79.70
2023-02-06T07:18:46.471Z,62.30
2023-02-06T07:19:46.419Z,60.00
2023-02-06T07:20:46.434Z,58.30
2023-02-06T07:21:46.416Z,47.10
2023-02-06T07:22:46.421Z,48.60
2023-02-06T07:23:46.420Z,48.10
2023-02-06T07:24:46.414Z,60.40
2023-02-06T07:25:46.405Z,49.70
2023-02-06T07:26:46.412Z,45.10
2023-02-06T07:27:46.368Z,44.10
2023-02-06T07:28:46.365Z,43.20
2023-02-06T07:29:46.368Z,41.10
2023-02-06T07:30:46.422Z,47.00
2023-02-06T07:31:46.456Z,44.80
2023-02-06T07:32:46.330Z,46.50
2023-02-06T07:33:46.303Z,43.30
2023-02-06T07:34:46.313Z,66.30
2023-02-06T07:35:46.271Z,63.90
2023-02-06T07:36:46.286Z,70.10
2023-02-06T07:37:46.298Z,61.50
2023-02-06T07:38:46.267Z,57.20
2023-02-06T07:39:46.240Z,64.40
2023-02-06T07:40:46.294Z,61.80
2023-02-06T07:41:46.234Z,59.50
2023-02-06T07:42:46.208Z,62.40
2023-02-06T07:43:46.220Z,51.10
2023-02-06T07:44:46.175Z,47.20
2023-02-06T07:45:46.216Z,50.00
2023-02-06T07:46:46.161Z,51.70
2023-02-06T07:47:46.158Z,48.30
2023-02-06T07:48:46.174Z,45.50
2023-02-06T07:49:46.160Z,46.20
2023-02-06T07:50:46.172Z,43.00
2023-02-06T07:51:46.111Z,40.80
2023-02-06T07:52:46.102Z,43.30
2023-02-06T07:53:46.088Z,46.80
2023-02-06T07:54:47.093Z,52.90
2023-02-06T07:55:46.092Z,54.20
2023-02-06T07:56:46.104Z,54.40
2023-02-06T07:57:46.074Z,56.10
2023-02-06T07:58:46.111Z,54.20
2023-02-06T07:59:46.064Z,68.40
2023-02-06T08:00:46.053Z,59.00
2023-02-06T08:01:46.097Z,69.90
2023-02-06T08:02:46.021Z,69.50
2023-02-06T08:03:46.025Z,66.30
2023-02-06T08:04:46.041Z,67.40
2023-02-06T08:05:45.984Z,71.10
2023-02-06T08:06:46.012Z,47.20
2023-02-06T08:07:45.956Z,47.40
2023-02-06T08:08:45.967Z,52.80
2023-02-06T08:09:45.933Z,50.40
2023-02-06T08:10:45.930Z,43.30
2023-02-06T08:11:45.901Z,71.90
2023-02-06T08:12:45.908Z,68.00
2023-02-06T08:13:45.864Z,81.70
2023-02-06T08:14:45.970Z,73.90
2023-02-06T08:15:45.868Z,66.30
2023-02-06T08:16:45.901Z,54.10
2023-02-06T08:17:45.876Z,56.10
2023-02-06T08:18:45.819Z,60.70
2023-02-06T08:19:45.839Z,63.60
2023-02-06T08:20:45.837Z,58.80
2023-02-06T08:21:45.841Z,57.80
2023-02-06T08:22:45.820Z,57.00
2023-02-06T08:23:45.884Z,55.10
2023-02-06T08:24:45.821Z,58.40
2023-02-06T08:25:45.753Z,56.10
2023-02-06T08:26:45.739Z,47.40
2023-02-06T08:27:45.803Z,49.30
2023-02-06T08:28:45.771Z,59.40
2023-02-06T08:29:45.746Z,54.70
2023-02-06T08:30:45.801Z,44.60
2023-02-06T08:31:45.814Z,51.10
2023-02-06T08:32:45.711Z,50.40
2023-02-06T08:33:45.689Z,47.00
2023-02-06T08:34:45.708Z,55.80
2023-02-06T08:35:45.692Z,62.20
2023-02-06T08:36:45.656Z,58.10
2023-02-06T08:37:45.673Z,56.20
2023-02-06T08:38:46.739Z,49.30
2023-02-06T08:39:46.634Z,58.90
2023-02-06T08:40:45.625Z,55.70
2023-02-06T08:41:45.621Z,50.40
2023-02-06T08:42:45.653Z,45.90
2023-02-06T08:43:45.604Z,44.50
2023-02-06T08:44:45.571Z,49.30
2023-02-06T08:45:45.642Z,53.70
2023-02-06T08:46:45.598Z,43.70
2023-02-06T08:47:45.582Z,38.00
2023-02-06T08:48:45.596Z,42.60
2023-02-06T08:49:45.557Z,40.60
2023-02-06T08:50:48.508Z,33.40
2023-02-06T08:51:45.559Z,31.30
2023-02-06T08:52:45.529Z,25.30
2023-02-06T08:53:45.488Z,23.40
2023-02-06T08:54:45.516Z,18.50
2023-02-06T08:55:45.494Z,22.80
2023-02-06T08:56:45.537Z,19.10
2023-02-06T08:57:45.476Z,16.10
2023-02-06T08:58:45.459Z,20.00
2023-02-06T08:59:45.598Z,16.60
2023-02-06T09:00:45.423Z,15.10
2023-02-06T09:01:45.621Z,15.50
2023-02-06T09:05:09.341Z,15.60
2023-02-06T09:06:10.462Z,13.10
2023-02-06T09:07:09.295Z,15.40
2023-02-06T10:53:03.648Z,6.10
2023-02-06T10:53:38.511Z,7.70
2023-02-06T10:54:38.498Z,8.70
2023-02-06T10:55:38.493Z,5.40
2023-02-06T10:56:38.524Z,5.80
2023-02-06T10:57:38.471Z,8.10
2023-02-06T10:58:38.462Z,5.30
2023-02-06T10:59:38.423Z,8.10
2023-02-06T11:00:38.867Z,7.50
2023-02-06T11:01:38.602Z,6.00
2023-02-06T11:02:38.398Z,6.50
2023-02-06T11:03:39.840Z,7.50
2023-02-06T11:04:38.415Z,7.20
2023-02-06T11:05:38.870Z,8.40
2023-02-06T11:06:38.381Z,7.50
2023-02-06T11:07:38.356Z,6.10
2023-02-06T11:08:38.341Z,6.30
2023-02-06T11:09:38.342Z,8.30
2023-02-06T11:10:38.789Z,6.00
2023-02-06T11:11:38.309Z,6.40
2023-02-06T11:12:38.400Z,6.50
2023-02-06T11:13:38.309Z,9.10
2023-02-06T11:15:40.138Z,7.00
2023-02-06T11:16:38.295Z,8.00
2023-02-06T11:17:38.227Z,7.50
2023-02-06T11:18:38.206Z,8.50
2023-02-06T11:19:38.198Z,10.80
2023-02-06T11:20:38.488Z,7.30
2023-02-06T11:21:38.170Z,9.60
2023-02-06T11:22:51.042Z,6.10
2023-02-06T11:23:39.153Z,7.00
2023-02-06T11:24:38.150Z,10.40
2023-02-06T11:25:38.498Z,7.90
2023-02-06T11:26:38.141Z,9.60
2023-02-06T11:27:38.122Z,7.70
2023-02-06T11:28:38.104Z,9.00
2023-02-06T11:29:38.096Z,6.90
2023-02-06T11:30:38.465Z,10.30
2023-02-06T11:31:38.286Z,8.50
2023-02-06T11:32:38.073Z,6.40
2023-02-06T11:33:38.056Z,8.80
2023-02-06T11:34:38.039Z,8.20
2023-02-06T11:35:38.431Z,8.40
2023-02-06T11:36:38.011Z,7.80
2023-02-06T11:37:38.030Z,7.00
2023-02-06T11:38:37.990Z,7.20
2023-02-06T11:39:37.995Z,8.30
2023-02-06T11:40:38.468Z,6.00
2023-02-06T11:41:37.971Z,6.50
2023-02-06T11:42:37.983Z,6.40
2023-02-06T11:43:37.973Z,7.80
2023-02-06T11:44:37.934Z,10.50
2023-02-06T11:45:38.235Z,6.20
2023-02-06T11:46:37.915Z,7.70
2023-02-06T11:47:38.288Z,6.60
2023-02-06T11:48:37.900Z,6.50
2023-02-06T11:49:37.898Z,9.60
2023-02-06T11:50:38.192Z,8.40
2023-02-06T11:51:37.862Z,7.90
2023-02-06T11:52:37.863Z,6.80
2023-02-06T11:53:37.899Z,7.00
2023-02-06T11:54:37.829Z,6.20
2023-02-06T11:55:38.111Z,8.50
2023-02-06T11:56:37.806Z,7.30
2023-02-06T11:57:37.815Z,6.60
2023-02-06T11:58:37.791Z,8.00
2023-02-06T11:59:37.781Z,6.20
2023-02-06T12:00:37.767Z,5.30
2023-02-06T12:01:37.779Z,6.60
2023-02-06T12:02:37.788Z,5.50
2023-02-06T12:03:37.832Z,5.30
2023-02-06T12:04:37.736Z,5.70
2023-02-06T12:05:38.175Z,6.60
2023-02-06T12:06:37.710Z,7.90
2023-02-06T12:07:37.736Z,6.40
2023-02-06T12:08:37.690Z,5.70
2023-02-06T12:09:37.679Z,4.90
2023-02-06T12:10:37.672Z,6.20
2023-02-06T12:11:37.669Z,4.30
2023-02-06T12:12:37.671Z,7.10
2023-02-06T12:13:37.646Z,8.10
2023-02-06T12:14:37.627Z,5.60
2023-02-06T12:15:46.644Z,6.10
2023-02-06T12:16:38.649Z,7.00
2023-02-06T12:17:37.603Z,5.60
2023-02-06T12:18:37.613Z,7.80
2023-02-06T12:19:37.579Z,8.20
2023-02-06T12:20:37.577Z,10.60
2023-02-06T12:21:37.556Z,9.50
2023-02-06T12:22:37.545Z,7.40
2023-02-06T12:23:37.555Z,6.70
2023-02-06T12:24:37.560Z,7.50
2023-02-06T12:25:37.859Z,6.90
2023-02-06T12:26:37.505Z,5.70
2023-02-06T12:27:39.276Z,7.10
2023-02-06T12:28:37.501Z,7.20
2023-02-06T12:29:37.501Z,6.80
2023-02-06T12:30:37.561Z,6.80
2023-02-06T12:31:37.598Z,6.00
2023-02-06T12:32:37.437Z,4.90
2023-02-06T12:33:37.462Z,7.80
2023-02-06T12:34:37.429Z,7.30
2023-02-06T12:35:37.714Z,5.20
2023-02-06T12:36:37.397Z,6.00
2023-02-06T12:37:37.386Z,6.20
2023-02-06T12:38:37.388Z,8.70
2023-02-06T12:39:37.365Z,9.80
2023-02-06T12:40:37.348Z,7.50
2023-02-06T12:41:37.343Z,7.30
2023-02-06T12:42:37.340Z,6.40
2023-02-06T12:43:37.334Z,6.80
2023-02-06T12:44:37.309Z,5.90
2023-02-06T12:45:37.617Z,7.10
2023-02-06T12:46:37.295Z,6.40
2023-02-06T12:47:37.294Z,8.60
2023-02-06T12:48:37.294Z,9.00
2023-02-06T12:49:37.256Z,9.20
2023-02-06T12:50:37.242Z,8.20
2023-02-06T12:51:37.231Z,8.80
2023-02-06T12:52:37.231Z,6.50
2023-02-06T12:53:37.249Z,9.20
2023-02-06T12:54:37.197Z,9.20
2023-02-06T12:55:37.556Z,10.70
2023-02-06T12:56:37.172Z,8.80
2023-02-06T12:57:37.168Z,8.90
2023-02-06T12:58:37.232Z,7.80
2023-02-06T12:59:41.623Z,5.20
2023-02-06T13:00:38.169Z,7.00
2023-02-06T13:01:37.218Z,8.10
2023-02-06T13:02:37.153Z,8.60
2023-02-06T13:03:37.132Z,8.60
2023-02-06T13:04:37.093Z,6.60
2023-02-06T13:05:37.472Z,7.30
2023-02-06T13:06:37.088Z,7.20
2023-02-06T13:07:48.818Z,5.70
2023-02-06T13:08:38.079Z,5.60
2023-02-06T13:09:37.051Z,6.00
2023-02-06T13:10:37.357Z,5.50
2023-02-06T13:11:37.032Z,6.40
2023-02-06T13:12:37.042Z,5.80
2023-02-06T13:13:37.063Z,7.50
2023-02-06T13:14:38.747Z,4.90
2023-02-06T13:15:37.368Z,5.60
2023-02-06T13:16:36.991Z,8.40
2023-02-06T13:17:36.981Z,10.40
2023-02-06T13:18:37.008Z,6.50
2023-02-06T13:19:36.960Z,5.50
2023-02-06T13:20:36.943Z,4.70
2023-02-06T13:21:36.939Z,7.10
2023-02-06T13:22:36.916Z,5.60
2023-02-06T13:23:36.923Z,4.60
2023-02-06T13:24:36.911Z,5.90
2023-02-06T13:25:37.243Z,4.40
2023-02-06T13:26:36.878Z,5.30
2023-02-06T13:27:36.862Z,7.40
2023-02-06T13:28:36.869Z,6.20
2023-02-06T13:29:36.847Z,5.80
2023-02-06T13:30:36.892Z,5.90
2023-02-06T13:31:36.858Z,5.00
2023-02-06T13:32:38.070Z,4.40
2023-02-06T13:33:37.091Z,5.10
2023-02-06T13:34:36.820Z,5.50
2023-02-06T13:35:37.085Z,4.80
2023-02-06T13:36:36.770Z,3.90
2023-02-06T13:37:36.764Z,4.50
2023-02-06T13:38:36.770Z,6.50
2023-02-06T13:39:36.742Z,4.60
2023-02-06T13:40:36.739Z,6.60
2023-02-06T13:41:36.734Z,5.20
2023-02-06T13:42:36.719Z,7.20
2023-02-06T13:43:36.734Z,4.70
2023-02-06T13:44:36.696Z,7.30
2023-02-06T13:45:37.003Z,8.10
2023-02-06T13:46:36.694Z,7.30
2023-02-06T13:47:36.656Z,5.90
2023-02-06T13:48:36.687Z,7.20
2023-02-06T13:49:36.638Z,4.60
2023-02-06T13:50:36.635Z,5.40
2023-02-06T13:51:36.617Z,4.90
2023-02-06T13:52:36.620Z,4.80
2023-02-06T13:53:36.616Z,6.00
2023-02-06T13:54:36.605Z,5.20
2023-02-06T13:55:36.845Z,5.40
2023-02-06T13:56:36.584Z,6.90
2023-02-06T13:57:36.557Z,7.20
2023-02-06T13:58:36.553Z,5.90
2023-02-06T13:59:36.562Z,6.90
2023-02-06T14:00:36.528Z,6.70
2023-02-06T14:01:36.549Z,6.10
2023-02-06T14:02:36.534Z,8.50
2023-02-06T14:03:36.503Z,5.90
2023-02-06T14:04:36.629Z,8.40
2023-02-06T14:05:36.955Z,5.60
2023-02-06T14:06:36.525Z,7.90
2023-02-06T14:10:00.160Z,8.20
2023-02-06T14:10:37.437Z,7.50
2023-02-06T14:11:36.419Z,9.70
2023-02-06T14:12:36.416Z,8.80
2023-02-06T14:13:36.499Z,7.30
2023-02-06T14:14:36.466Z,8.20
2023-02-06T14:15:36.838Z,6.00
2023-02-06T14:16:36.384Z,8.60
2023-02-06T14:17:36.343Z,8.20
2023-02-06T14:18:36.345Z,7.20
2023-02-06T14:19:36.335Z,10.00
2023-02-06T14:20:36.320Z,10.50
2023-02-06T14:21:36.297Z,6.60
2023-02-06T14:22:36.295Z,12.90
2023-02-06T14:23:36.294Z,6.90
2023-02-06T14:24:36.303Z,7.50
2023-02-06T14:25:36.556Z,11.40
2023-02-06T14:26:36.256Z,13.40
2023-02-06T14:27:36.241Z,8.90
2023-02-06T14:28:36.235Z,15.50
2023-02-06T14:29:36.233Z,19.30
2023-02-06T14:30:36.253Z,15.40
2023-02-06T14:31:36.290Z,7.40
2023-02-06T14:32:36.182Z,13.00
2023-02-06T14:33:36.259Z,8.60
2023-02-06T14:34:36.172Z,10.00
2023-02-06T14:35:36.507Z,7.30
2023-02-06T14:36:36.142Z,7.40
2023-02-06T14:37:36.128Z,5.80
2023-02-06T14:38:36.126Z,11.20
2023-02-06T14:39:36.110Z,13.40
2023-02-06T14:40:36.111Z,15.10
2023-02-06T14:41:36.080Z,11.10
2023-02-06T14:42:36.091Z,13.90
2023-02-06T14:43:36.064Z,10.70
2023-02-06T14:44:36.067Z,11.20
2023-02-06T14:45:42.112Z,9.50
2023-02-06T14:46:37.076Z,10.20
2023-02-06T14:47:36.015Z,9.60
2023-02-06T14:48:36.014Z,8.40
2023-02-06T14:49:36.012Z,11.50
2023-02-06T14:50:35.994Z,10.30